sensor_id;sensor_type;location;lat;lon;timestamp;temperature;humidity
27633;DHT22;15046;50.930;13.334;2023-05-19T00:02:15;12.70;74.40
27633;DHT22;15046;50.930;13.334;2023-05-19T00:04:43;12.70;74.70
27633;DHT22;15046;50.930;13.334;2023-05-19T00:07:10;12.60;75.40
27633;DHT22;15046;50.930;13.334;2023-05-19T00:09:36;12.50;74.80
27633;DHT22;15046;50.930;13.334;2023-05-19T00:12:03;12.50;75.00
27633;DHT22;15046;50.930;13.334;2023-05-19T00:14:29;12.40;75.20
27633;DHT22;15046;50.930;13.334;2023-05-19T00:17:00;12.40;75.50
27633;DHT22;15046;50.930;13.334;2023-05-19T00:19:28;12.40;75.50
27633;DHT22;15046;50.930;13.334;2023-05-19T00:21:57;12.30;75.50
27633;DHT22;15046;50.930;13.334;2023-05-19T00:24:23;12.40;75.60
27633;DHT22;15046;50.930;13.334;2023-05-19T00:26:49;12.40;75.60
27633;DHT22;15046;50.930;13.334;2023-05-19T00:29:15;12.30;75.70
27633;DHT22;15046;50.930;13.334;2023-05-19T00:31:43;12.30;75.70
27633;DHT22;15046;50.930;13.334;2023-05-19T00:34:09;12.30;75.80
27633;DHT22;15046;50.930;13.334;2023-05-19T00:36:35;12.30;75.90
27633;DHT22;15046;50.930;13.334;2023-05-19T00:39:02;12.30;75.90
27633;DHT22;15046;50.930;13.334;2023-05-19T00:41:28;12.30;76.00
27633;DHT22;15046;50.930;13.334;2023-05-19T00:43:54;12.20;76.10
27633;DHT22;15046;50.930;13.334;2023-05-19T00:46:20;12.30;76.40
27633;DHT22;15046;50.930;13.334;2023-05-19T00:48:47;12.30;76.50
27633;DHT22;15046;50.930;13.334;2023-05-19T00:51:13;12.30;76.60
27633;DHT22;15046;50.930;13.334;2023-05-19T00:53:41;12.30;76.70
27633;DHT22;15046;50.930;13.334;2023-05-19T00:56:08;12.30;77.00
27633;DHT22;15046;50.930;13.334;2023-05-19T00:58:35;12.30;77.20
27633;DHT22;15046;50.930;13.334;2023-05-19T01:01:01;12.20;77.30
27633;DHT22;15046;50.930;13.334;2023-05-19T01:03:32;12.20;77.40
27633;DHT22;15046;50.930;13.334;2023-05-19T01:06:02;12.20;77.50
27633;DHT22;15046;50.930;13.334;2023-05-19T01:08:38;12.20;77.50
27633;DHT22;15046;50.930;13.334;2023-05-19T01:11:05;12.10;77.70
27633;DHT22;15046;50.930;13.334;2023-05-19T01:13:32;12.00;77.70
27633;DHT22;15046;50.930;13.334;2023-05-19T01:24:27;11.90;77.90
27633;DHT22;15046;50.930;13.334;2023-05-19T01:36:10;11.70;78.40
27633;DHT22;15046;50.930;13.334;2023-05-19T01:38:37;11.80;78.60
27633;DHT22;15046;50.930;13.334;2023-05-19T01:41:05;11.70;78.60
27633;DHT22;15046;50.930;13.334;2023-05-19T01:43:32;11.70;78.60
27633;DHT22;15046;50.930;13.334;2023-05-19T01:45:58;11.70;78.70
27633;DHT22;15046;50.930;13.334;2023-05-19T01:48:26;11.60;78.80
27633;DHT22;15046;50.930;13.334;2023-05-19T01:50:51;11.60;78.70
27633;DHT22;15046;50.930;13.334;2023-05-19T01:53:22;11.60;78.60
27633;DHT22;15046;50.930;13.334;2023-05-19T01:55:52;11.50;78.60
27633;DHT22;15046;50.930;13.334;2023-05-19T02:08:57;11.40;78.80
27633;DHT22;15046;50.930;13.334;2023-05-19T02:11:45;11.30;78.90
27633;DHT22;15046;50.930;13.334;2023-05-19T02:14:19;11.30;78.90
27633;DHT22;15046;50.930;13.334;2023-05-19T02:16:47;11.20;79.00
27633;DHT22;15046;50.930;13.334;2023-05-19T02:19:29;11.10;79.10
27633;DHT22;15046;50.930;13.334;2023-05-19T02:21:55;11.10;79.40
27633;DHT22;15046;50.930;13.334;2023-05-19T02:24:21;11.00;79.30
27633;DHT22;15046;50.930;13.334;2023-05-19T02:26:48;11.00;79.20
27633;DHT22;15046;50.930;13.334;2023-05-19T02:29:14;10.90;79.30
27633;DHT22;15046;50.930;13.334;2023-05-19T02:31:39;10.80;79.40
27633;DHT22;15046;50.930;13.334;2023-05-19T02:34:05;10.80;79.50
27633;DHT22;15046;50.930;13.334;2023-05-19T02:36:34;10.80;79.70
27633;DHT22;15046;50.930;13.334;2023-05-19T02:39:02;10.70;79.80
27633;DHT22;15046;50.930;13.334;2023-05-19T02:41:28;10.60;80.00
27633;DHT22;15046;50.930;13.334;2023-05-19T02:43:53;10.50;80.50
27633;DHT22;15046;50.930;13.334;2023-05-19T02:46:20;10.50;80.80
27633;DHT22;15046;50.930;13.334;2023-05-19T02:48:47;10.40;80.80
27633;DHT22;15046;50.930;13.334;2023-05-19T02:51:13;10.40;80.90
27633;DHT22;15046;50.930;13.334;2023-05-19T02:53:38;10.40;80.90
27633;DHT22;15046;50.930;13.334;2023-05-19T02:56:04;10.40;80.90
27633;DHT22;15046;50.930;13.334;2023-05-19T02:58:30;10.40;81.00
27633;DHT22;15046;50.930;13.334;2023-05-19T03:00:56;10.40;81.10
27633;DHT22;15046;50.930;13.334;2023-05-19T03:03:22;10.40;81.30
27633;DHT22;15046;50.930;13.334;2023-05-19T03:05:47;10.40;81.40
27633;DHT22;15046;50.930;13.334;2023-05-19T03:08:13;10.40;81.60
27633;DHT22;15046;50.930;13.334;2023-05-19T03:10:39;10.40;81.80
27633;DHT22;15046;50.930;13.334;2023-05-19T03:13:05;10.40;81.80
27633;DHT22;15046;50.930;13.334;2023-05-19T03:15:30;10.40;82.20
27633;DHT22;15046;50.930;13.334;2023-05-19T03:17:57;10.40;81.90
27633;DHT22;15046;50.930;13.334;2023-05-19T03:20:23;10.40;82.00
27633;DHT22;15046;50.930;13.334;2023-05-19T03:22:49;10.40;82.10
27633;DHT22;15046;50.930;13.334;2023-05-19T03:25:15;10.40;82.20
27633;DHT22;15046;50.930;13.334;2023-05-19T03:27:41;10.30;82.40
27633;DHT22;15046;50.930;13.334;2023-05-19T03:30:08;10.30;82.70
27633;DHT22;15046;50.930;13.334;2023-05-19T03:32:34;10.30;82.80
27633;DHT22;15046;50.930;13.334;2023-05-19T03:35:03;10.40;83.00
27633;DHT22;15046;50.930;13.334;2023-05-19T03:37:29;10.40;83.00
27633;DHT22;15046;50.930;13.334;2023-05-19T03:39:55;10.40;82.90
27633;DHT22;15046;50.930;13.334;2023-05-19T03:42:21;10.40;82.80
27633;DHT22;15046;50.930;13.334;2023-05-19T03:44:47;10.40;82.80
27633;DHT22;15046;50.930;13.334;2023-05-19T03:47:13;10.40;83.00
27633;DHT22;15046;50.930;13.334;2023-05-19T03:49:39;10.40;83.10
27633;DHT22;15046;50.930;13.334;2023-05-19T03:52:05;10.40;83.30
27633;DHT22;15046;50.930;13.334;2023-05-19T03:54:30;10.40;83.40
27633;DHT22;15046;50.930;13.334;2023-05-19T03:56:56;10.40;83.30
27633;DHT22;15046;50.930;13.334;2023-05-19T03:59:22;10.40;83.00
27633;DHT22;15046;50.930;13.334;2023-05-19T04:01:49;10.50;82.90
27633;DHT22;15046;50.930;13.334;2023-05-19T04:04:15;10.50;82.80
27633;DHT22;15046;50.930;13.334;2023-05-19T04:06:41;10.50;82.90
27633;DHT22;15046;50.930;13.334;2023-05-19T04:09:13;10.40;82.90
27633;DHT22;15046;50.930;13.334;2023-05-19T04:11:39;10.50;83.10
27633;DHT22;15046;50.930;13.334;2023-05-19T04:14:06;10.50;83.10
27633;DHT22;15046;50.930;13.334;2023-05-19T04:16:32;10.50;83.20
27633;DHT22;15046;50.930;13.334;2023-05-19T04:18:58;10.50;83.00
27633;DHT22;15046;50.930;13.334;2023-05-19T04:21:24;10.50;82.90
27633;DHT22;15046;50.930;13.334;2023-05-19T04:23:50;10.50;82.70
27633;DHT22;15046;50.930;13.334;2023-05-19T04:26:16;10.60;82.60
27633;DHT22;15046;50.930;13.334;2023-05-19T04:28:43;10.60;82.50
27633;DHT22;15046;50.930;13.334;2023-05-19T04:31:10;10.70;82.50
27633;DHT22;15046;50.930;13.334;2023-05-19T04:33:37;10.70;82.50
27633;DHT22;15046;50.930;13.334;2023-05-19T04:36:04;10.80;82.60
27633;DHT22;15046;50.930;13.334;2023-05-19T04:38:33;10.80;82.70
27633;DHT22;15046;50.930;13.334;2023-05-19T04:40:59;10.90;82.80
27633;DHT22;15046;50.930;13.334;2023-05-19T04:43:26;11.00;82.80
27633;DHT22;15046;50.930;13.334;2023-05-19T04:45:53;11.00;82.70
27633;DHT22;15046;50.930;13.334;2023-05-19T04:48:19;11.10;82.80
27633;DHT22;15046;50.930;13.334;2023-05-19T04:50:48;11.10;82.90
27633;DHT22;15046;50.930;13.334;2023-05-19T04:53:17;11.20;82.70
27633;DHT22;15046;50.930;13.334;2023-05-19T04:55:43;11.30;83.00
27633;DHT22;15046;50.930;13.334;2023-05-19T04:58:09;11.40;82.90
27633;DHT22;15046;50.930;13.334;2023-05-19T05:00:38;11.50;82.80
27633;DHT22;15046;50.930;13.334;2023-05-19T05:03:04;11.50;82.80
27633;DHT22;15046;50.930;13.334;2023-05-19T05:05:31;11.60;82.80
27633;DHT22;15046;50.930;13.334;2023-05-19T05:07:57;11.60;82.90
27633;DHT22;15046;50.930;13.334;2023-05-19T05:10:23;11.70;82.70
27633;DHT22;15046;50.930;13.334;2023-05-19T05:12:50;11.80;82.80
27633;DHT22;15046;50.930;13.334;2023-05-19T05:15:16;11.90;82.70
27633;DHT22;15046;50.930;13.334;2023-05-19T05:17:42;12.00;82.60
27633;DHT22;15046;50.930;13.334;2023-05-19T05:20:08;12.10;82.30
27633;DHT22;15046;50.930;13.334;2023-05-19T05:22:36;12.10;81.90
27633;DHT22;15046;50.930;13.334;2023-05-19T05:25:03;12.20;81.60
27633;DHT22;15046;50.930;13.334;2023-05-19T05:27:29;12.20;81.40
27633;DHT22;15046;50.930;13.334;2023-05-19T05:29:55;12.30;82.20
27633;DHT22;15046;50.930;13.334;2023-05-19T05:32:21;12.30;81.80
27633;DHT22;15046;50.930;13.334;2023-05-19T05:34:47;12.40;81.80
27633;DHT22;15046;50.930;13.334;2023-05-19T05:37:14;12.50;81.80
27633;DHT22;15046;50.930;13.334;2023-05-19T05:39:40;12.50;81.50
27633;DHT22;15046;50.930;13.334;2023-05-19T05:42:10;12.60;81.40
27633;DHT22;15046;50.930;13.334;2023-05-19T05:44:36;12.70;81.40
27633;DHT22;15046;50.930;13.334;2023-05-19T05:47:03;12.70;81.50
27633;DHT22;15046;50.930;13.334;2023-05-19T05:49:29;12.80;81.60
27633;DHT22;15046;50.930;13.334;2023-05-19T05:51:55;12.90;81.60
27633;DHT22;15046;50.930;13.334;2023-05-19T05:54:22;13.00;81.10
27633;DHT22;15046;50.930;13.334;2023-05-19T05:56:49;13.00;80.80
27633;DHT22;15046;50.930;13.334;2023-05-19T05:59:16;13.10;80.60
27633;DHT22;15046;50.930;13.334;2023-05-19T06:01:42;13.10;80.50
27633;DHT22;15046;50.930;13.334;2023-05-19T06:04:08;13.10;80.60
27633;DHT22;15046;50.930;13.334;2023-05-19T06:06:34;13.00;80.60
27633;DHT22;15046;50.930;13.334;2023-05-19T06:09:02;13.00;80.80
27633;DHT22;15046;50.930;13.334;2023-05-19T06:11:28;13.00;81.00
27633;DHT22;15046;50.930;13.334;2023-05-19T06:13:56;13.00;81.10
27633;DHT22;15046;50.930;13.334;2023-05-19T06:16:21;13.00;81.10
27633;DHT22;15046;50.930;13.334;2023-05-19T06:18:47;13.10;81.80
27633;DHT22;15046;50.930;13.334;2023-05-19T06:21:13;13.10;81.40
27633;DHT22;15046;50.930;13.334;2023-05-19T06:23:40;13.10;81.50
27633;DHT22;15046;50.930;13.334;2023-05-19T06:26:05;13.10;81.40
27633;DHT22;15046;50.930;13.334;2023-05-19T06:28:32;13.20;81.20
27633;DHT22;15046;50.930;13.334;2023-05-19T06:30:58;13.30;81.30
27633;DHT22;15046;50.930;13.334;2023-05-19T06:33:24;13.40;80.90
27633;DHT22;15046;50.930;13.334;2023-05-19T06:35:52;13.50;80.80
27633;DHT22;15046;50.930;13.334;2023-05-19T06:38:17;13.70;80.90
27633;DHT22;15046;50.930;13.334;2023-05-19T06:40:44;13.80;80.70
27633;DHT22;15046;50.930;13.334;2023-05-19T06:43:10;14.00;80.40
27633;DHT22;15046;50.930;13.334;2023-05-19T06:45:37;14.10;80.60
27633;DHT22;15046;50.930;13.334;2023-05-19T06:48:03;14.30;81.00
27633;DHT22;15046;50.930;13.334;2023-05-19T06:50:29;14.40;80.00
27633;DHT22;15046;50.930;13.334;2023-05-19T06:52:54;14.50;79.70
27633;DHT22;15046;50.930;13.334;2023-05-19T06:55:21;14.60;79.30
27633;DHT22;15046;50.930;13.334;2023-05-19T06:57:47;14.70;78.80
27633;DHT22;15046;50.930;13.334;2023-05-19T07:00:13;14.80;78.70
27633;DHT22;15046;50.930;13.334;2023-05-19T07:02:41;14.90;79.00
27633;DHT22;15046;50.930;13.334;2023-05-19T07:05:07;15.10;79.00
27633;DHT22;15046;50.930;13.334;2023-05-19T07:07:33;15.20;79.30
27633;DHT22;15046;50.930;13.334;2023-05-19T07:09:59;15.30;78.60
27633;DHT22;15046;50.930;13.334;2023-05-19T07:12:25;15.40;78.40
27633;DHT22;15046;50.930;13.334;2023-05-19T07:14:51;15.60;77.90
27633;DHT22;15046;50.930;13.334;2023-05-19T07:17:18;15.90;77.10
27633;DHT22;15046;50.930;13.334;2023-05-19T07:19:44;16.10;76.40
27633;DHT22;15046;50.930;13.334;2023-05-19T07:22:10;16.20;76.00
27633;DHT22;15046;50.930;13.334;2023-05-19T07:24:35;16.20;75.50
27633;DHT22;15046;50.930;13.334;2023-05-19T07:27:01;16.10;75.40
27633;DHT22;15046;50.930;13.334;2023-05-19T07:29:27;15.90;75.50
27633;DHT22;15046;50.930;13.334;2023-05-19T07:31:53;15.80;75.60
27633;DHT22;15046;50.930;13.334;2023-05-19T07:34:23;15.70;75.60
27633;DHT22;15046;50.930;13.334;2023-05-19T07:36:49;15.60;75.80
27633;DHT22;15046;50.930;13.334;2023-05-19T07:39:16;15.50;75.70
27633;DHT22;15046;50.930;13.334;2023-05-19T07:41:42;15.50;75.70
27633;DHT22;15046;50.930;13.334;2023-05-19T07:44:08;15.50;76.00
27633;DHT22;15046;50.930;13.334;2023-05-19T07:46:36;15.60;76.00
27633;DHT22;15046;50.930;13.334;2023-05-19T07:49:02;15.60;75.80
27633;DHT22;15046;50.930;13.334;2023-05-19T07:51:28;15.70;75.60
27633;DHT22;15046;50.930;13.334;2023-05-19T07:53:54;15.70;74.90
27633;DHT22;15046;50.930;13.334;2023-05-19T07:56:20;15.70;74.40
27633;DHT22;15046;50.930;13.334;2023-05-19T07:58:46;15.70;74.00
27633;DHT22;15046;50.930;13.334;2023-05-19T08:01:12;15.70;73.80
27633;DHT22;15046;50.930;13.334;2023-05-19T08:03:38;15.70;74.00
27633;DHT22;15046;50.930;13.334;2023-05-19T08:06:04;15.70;73.90
27633;DHT22;15046;50.930;13.334;2023-05-19T08:08:30;15.70;74.10
27633;DHT22;15046;50.930;13.334;2023-05-19T08:11:01;15.90;74.40
27633;DHT22;15046;50.930;13.334;2023-05-19T08:13:27;16.20;73.60
27633;DHT22;15046;50.930;13.334;2023-05-19T08:15:53;16.50;73.10
27633;DHT22;15046;50.930;13.334;2023-05-19T08:18:27;16.70;72.50
27633;DHT22;15046;50.930;13.334;2023-05-19T08:20:53;16.90;72.10
27633;DHT22;15046;50.930;13.334;2023-05-19T08:23:18;17.00;71.30
27633;DHT22;15046;50.930;13.334;2023-05-19T08:25:44;17.10;72.00
27633;DHT22;15046;50.930;13.334;2023-05-19T08:28:13;17.30;71.10
27633;DHT22;15046;50.930;13.334;2023-05-19T08:30:42;17.40;70.90
27633;DHT22;15046;50.930;13.334;2023-05-19T08:33:08;17.60;70.90
27633;DHT22;15046;50.930;13.334;2023-05-19T08:35:35;17.80;70.90
27633;DHT22;15046;50.930;13.334;2023-05-19T08:38:01;17.90;70.30
27633;DHT22;15046;50.930;13.334;2023-05-19T08:40:27;18.00;69.90
27633;DHT22;15046;50.930;13.334;2023-05-19T08:42:55;18.00;69.00
27633;DHT22;15046;50.930;13.334;2023-05-19T08:45:21;18.10;68.00
27633;DHT22;15046;50.930;13.334;2023-05-19T08:47:48;18.10;67.00
27633;DHT22;15046;50.930;13.334;2023-05-19T08:50:19;18.00;66.70
27633;DHT22;15046;50.930;13.334;2023-05-19T08:53:00;18.10;66.60
27633;DHT22;15046;50.930;13.334;2023-05-19T08:55:43;18.30;66.50
27633;DHT22;15046;50.930;13.334;2023-05-19T08:58:11;18.40;66.10
27633;DHT22;15046;50.930;13.334;2023-05-19T09:00:38;18.70;66.90
27633;DHT22;15046;50.930;13.334;2023-05-19T09:03:04;18.90;66.90
27633;DHT22;15046;50.930;13.334;2023-05-19T09:05:31;19.00;66.30
27633;DHT22;15046;50.930;13.334;2023-05-19T09:07:57;18.90;66.10
27633;DHT22;15046;50.930;13.334;2023-05-19T09:10:23;18.70;65.70
27633;DHT22;15046;50.930;13.334;2023-05-19T09:12:49;18.80;65.90
27633;DHT22;15046;50.930;13.334;2023-05-19T09:15:16;18.90;65.70
27633;DHT22;15046;50.930;13.334;2023-05-19T09:17:47;19.10;65.10
27633;DHT22;15046;50.930;13.334;2023-05-19T09:20:14;19.40;64.00
27633;DHT22;15046;50.930;13.334;2023-05-19T09:22:46;19.50;64.10
27633;DHT22;15046;50.930;13.334;2023-05-19T09:25:20;19.80;64.70
27633;DHT22;15046;50.930;13.334;2023-05-19T09:27:48;20.20;63.10
27633;DHT22;15046;50.930;13.334;2023-05-19T09:30:15;20.30;63.10
27633;DHT22;15046;50.930;13.334;2023-05-19T09:32:41;20.20;61.90
27633;DHT22;15046;50.930;13.334;2023-05-19T09:35:08;20.00;62.10
27633;DHT22;15046;50.930;13.334;2023-05-19T09:37:33;19.70;62.80
27633;DHT22;15046;50.930;13.334;2023-05-19T09:39:59;19.50;63.50
27633;DHT22;15046;50.930;13.334;2023-05-19T09:42:26;19.30;64.10
27633;DHT22;15046;50.930;13.334;2023-05-19T09:45:01;19.30;64.90
27633;DHT22;15046;50.930;13.334;2023-05-19T09:47:39;19.40;65.80
27633;DHT22;15046;50.930;13.334;2023-05-19T09:50:10;19.50;63.90
27633;DHT22;15046;50.930;13.334;2023-05-19T09:52:37;19.50;63.90
27633;DHT22;15046;50.930;13.334;2023-05-19T09:55:10;19.70;64.10
27633;DHT22;15046;50.930;13.334;2023-05-19T09:57:38;20.10;64.20
27633;DHT22;15046;50.930;13.334;2023-05-19T10:00:08;20.50;62.00
27633;DHT22;15046;50.930;13.334;2023-05-19T10:02:47;21.10;60.70
27633;DHT22;15046;50.930;13.334;2023-05-19T10:05:16;22.30;60.40
27633;DHT22;15046;50.930;13.334;2023-05-19T10:07:44;23.60;58.10
27633;DHT22;15046;50.930;13.334;2023-05-19T10:10:14;24.50;56.80
27633;DHT22;15046;50.930;13.334;2023-05-19T10:12:42;25.30;55.80
27633;DHT22;15046;50.930;13.334;2023-05-19T10:15:18;26.10;54.80
27633;DHT22;15046;50.930;13.334;2023-05-19T10:17:45;26.90;53.00
27633;DHT22;15046;50.930;13.334;2023-05-19T10:20:15;27.20;52.50
27633;DHT22;15046;50.930;13.334;2023-05-19T10:22:42;26.70;51.80
27633;DHT22;15046;50.930;13.334;2023-05-19T10:25:09;25.40;53.10
27633;DHT22;15046;50.930;13.334;2023-05-19T10:27:39;24.50;55.20
27633;DHT22;15046;50.930;13.334;2023-05-19T10:30:12;25.30;55.50
27633;DHT22;15046;50.930;13.334;2023-05-19T10:32:42;26.30;54.50
27633;DHT22;15046;50.930;13.334;2023-05-19T10:41:40;28.20;52.00
27633;DHT22;15046;50.930;13.334;2023-05-19T10:47:10;27.70;52.10
27633;DHT22;15046;50.930;13.334;2023-05-19T10:49:37;26.90;51.70
27633;DHT22;15046;50.930;13.334;2023-05-19T10:52:21;27.10;52.10
27633;DHT22;15046;50.930;13.334;2023-05-19T10:54:47;27.70;51.80
27633;DHT22;15046;50.930;13.334;2023-05-19T10:57:17;27.90;51.70
27633;DHT22;15046;50.930;13.334;2023-05-19T10:59:44;27.10;51.50
27633;DHT22;15046;50.930;13.334;2023-05-19T11:02:37;26.00;51.80
27633;DHT22;15046;50.930;13.334;2023-05-19T11:05:08;24.80;52.70
27633;DHT22;15046;50.930;13.334;2023-05-19T11:07:34;23.90;53.50
27633;DHT22;15046;50.930;13.334;2023-05-19T11:10:04;23.20;54.10
27633;DHT22;15046;50.930;13.334;2023-05-19T11:12:44;22.80;55.80
27633;DHT22;15046;50.930;13.334;2023-05-19T11:15:13;23.00;55.50
27633;DHT22;15046;50.930;13.334;2023-05-19T11:17:42;24.20;55.00
27633;DHT22;15046;50.930;13.334;2023-05-19T11:20:23;25.90;53.90
27633;DHT22;15046;50.930;13.334;2023-05-19T11:23:09;27.50;52.10
27633;DHT22;15046;50.930;13.334;2023-05-19T11:25:43;28.70;51.70
27633;DHT22;15046;50.930;13.334;2023-05-19T11:28:10;29.70;50.70
27633;DHT22;15046;50.930;13.334;2023-05-19T11:30:41;30.30;50.00
27633;DHT22;15046;50.930;13.334;2023-05-19T11:33:08;30.60;48.90
27633;DHT22;15046;50.930;13.334;2023-05-19T11:35:34;30.10;48.10
27633;DHT22;15046;50.930;13.334;2023-05-19T11:38:01;30.20;47.90
27633;DHT22;15046;50.930;13.334;2023-05-19T11:40:28;30.30;48.30
27633;DHT22;15046;50.930;13.334;2023-05-19T11:42:54;30.50;48.00
27633;DHT22;15046;50.930;13.334;2023-05-19T11:45:27;30.50;47.40
27633;DHT22;15046;50.930;13.334;2023-05-19T11:47:57;29.70;47.20
27633;DHT22;15046;50.930;13.334;2023-05-19T11:50:25;29.20;47.80
27633;DHT22;15046;50.930;13.334;2023-05-19T11:52:53;28.40;47.80
27633;DHT22;15046;50.930;13.334;2023-05-19T11:55:20;27.50;48.90
27633;DHT22;15046;50.930;13.334;2023-05-19T11:58:02;27.10;49.80
27633;DHT22;15046;50.930;13.334;2023-05-19T12:00:33;27.20;50.50
27633;DHT22;15046;50.930;13.334;2023-05-19T12:03:01;27.40;50.40
27633;DHT22;15046;50.930;13.334;2023-05-19T12:05:29;27.60;50.90
27633;DHT22;15046;50.930;13.334;2023-05-19T12:07:56;28.20;50.30
27633;DHT22;15046;50.930;13.334;2023-05-19T12:10:30;29.00;50.10
27633;DHT22;15046;50.930;13.334;2023-05-19T12:12:58;29.70;49.00
27633;DHT22;15046;50.930;13.334;2023-05-19T12:15:25;29.90;48.30
27633;DHT22;15046;50.930;13.334;2023-05-19T12:17:57;29.90;48.10
27633;DHT22;15046;50.930;13.334;2023-05-19T12:20:26;29.50;48.20
27633;DHT22;15046;50.930;13.334;2023-05-19T12:22:55;28.40;48.50
27633;DHT22;15046;50.930;13.334;2023-05-19T12:25:22;27.40;49.30
27633;DHT22;15046;50.930;13.334;2023-05-19T12:27:49;26.20;50.90
27633;DHT22;15046;50.930;13.334;2023-05-19T12:30:17;25.50;51.90
27633;DHT22;15046;50.930;13.334;2023-05-19T12:32:45;25.90;52.50
27633;DHT22;15046;50.930;13.334;2023-05-19T12:35:11;26.80;52.10
27633;DHT22;15046;50.930;13.334;2023-05-19T12:37:40;27.70;51.10
27633;DHT22;15046;50.930;13.334;2023-05-19T12:40:07;28.30;50.90
27633;DHT22;15046;50.930;13.334;2023-05-19T12:42:33;28.40;50.30
27633;DHT22;15046;50.930;13.334;2023-05-19T12:45:02;28.20;50.40
27633;DHT22;15046;50.930;13.334;2023-05-19T12:47:33;28.20;49.90
27633;DHT22;15046;50.930;13.334;2023-05-19T12:50:06;27.80;49.70
27633;DHT22;15046;50.930;13.334;2023-05-19T12:52:41;26.90;50.30
27633;DHT22;15046;50.930;13.334;2023-05-19T12:55:08;26.80;51.00
27633;DHT22;15046;50.930;13.334;2023-05-19T12:57:36;26.70;50.60
27633;DHT22;15046;50.930;13.334;2023-05-19T13:00:28;26.80;51.40
27633;DHT22;15046;50.930;13.334;2023-05-19T13:05:31;28.90;50.20
27633;DHT22;15046;50.930;13.334;2023-05-19T13:08:09;29.80;49.50
27633;DHT22;15046;50.930;13.334;2023-05-19T13:10:37;30.30;49.30
27633;DHT22;15046;50.930;13.334;2023-05-19T13:13:06;30.90;48.60
27633;DHT22;15046;50.930;13.334;2023-05-19T13:15:33;31.10;47.90
27633;DHT22;15046;50.930;13.334;2023-05-19T13:18:01;30.40;48.00
27633;DHT22;15046;50.930;13.334;2023-05-19T13:20:28;29.40;48.30
27633;DHT22;15046;50.930;13.334;2023-05-19T13:22:54;28.60;48.90
27633;DHT22;15046;50.930;13.334;2023-05-19T13:25:20;27.90;49.70
27633;DHT22;15046;50.930;13.334;2023-05-19T13:27:47;28.10;50.30
27633;DHT22;15046;50.930;13.334;2023-05-19T13:30:14;28.80;49.90
27633;DHT22;15046;50.930;13.334;2023-05-19T13:32:42;29.60;49.70
27633;DHT22;15046;50.930;13.334;2023-05-19T13:35:09;29.80;49.00
27633;DHT22;15046;50.930;13.334;2023-05-19T13:37:35;29.20;48.80
27633;DHT22;15046;50.930;13.334;2023-05-19T13:40:01;28.30;49.20
27633;DHT22;15046;50.930;13.334;2023-05-19T13:42:27;27.60;50.00
27633;DHT22;15046;50.930;13.334;2023-05-19T13:44:55;27.00;50.50
27633;DHT22;15046;50.930;13.334;2023-05-19T13:47:24;26.60;50.70
27633;DHT22;15046;50.930;13.334;2023-05-19T13:49:50;26.20;51.50
27633;DHT22;15046;50.930;13.334;2023-05-19T13:52:17;25.90;51.80
27633;DHT22;15046;50.930;13.334;2023-05-19T13:54:44;25.40;52.20
27633;DHT22;15046;50.930;13.334;2023-05-19T13:57:09;24.90;52.80
27633;DHT22;15046;50.930;13.334;2023-05-19T13:59:36;24.50;53.40
27633;DHT22;15046;50.930;13.334;2023-05-19T14:02:03;24.40;54.10
27633;DHT22;15046;50.930;13.334;2023-05-19T14:04:29;24.50;54.20
27633;DHT22;15046;50.930;13.334;2023-05-19T14:06:55;24.60;54.10
27633;DHT22;15046;50.930;13.334;2023-05-19T14:09:21;24.70;53.90
27633;DHT22;15046;50.930;13.334;2023-05-19T14:11:47;24.80;54.30
27633;DHT22;15046;50.930;13.334;2023-05-19T14:14:13;24.70;54.10
27633;DHT22;15046;50.930;13.334;2023-05-19T14:16:40;24.80;54.10
27633;DHT22;15046;50.930;13.334;2023-05-19T14:19:06;24.80;54.20
27633;DHT22;15046;50.930;13.334;2023-05-19T14:21:31;24.80;54.30
27633;DHT22;15046;50.930;13.334;2023-05-19T14:23:58;24.70;54.20
27633;DHT22;15046;50.930;13.334;2023-05-19T14:26:24;25.30;54.50
27633;DHT22;15046;50.930;13.334;2023-05-19T14:28:52;26.30;53.40
27633;DHT22;15046;50.930;13.334;2023-05-19T14:31:18;26.70;52.90
27633;DHT22;15046;50.930;13.334;2023-05-19T14:33:44;26.50;52.10
27633;DHT22;15046;50.930;13.334;2023-05-19T14:36:09;26.20;52.50
27633;DHT22;15046;50.930;13.334;2023-05-19T14:38:35;26.10;52.90
27633;DHT22;15046;50.930;13.334;2023-05-19T14:41:02;26.10;52.80
27633;DHT22;15046;50.930;13.334;2023-05-19T14:43:27;25.80;53.00
27633;DHT22;15046;50.930;13.334;2023-05-19T14:45:54;25.70;53.20
27633;DHT22;15046;50.930;13.334;2023-05-19T14:48:20;25.90;53.20
27633;DHT22;15046;50.930;13.334;2023-05-19T14:50:46;25.90;52.70
27633;DHT22;15046;50.930;13.334;2023-05-19T14:53:15;25.60;52.80
27633;DHT22;15046;50.930;13.334;2023-05-19T14:55:42;25.30;53.10
27633;DHT22;15046;50.930;13.334;2023-05-19T14:58:08;25.00;53.60
27633;DHT22;15046;50.930;13.334;2023-05-19T15:00:34;24.80;54.10
27633;DHT22;15046;50.930;13.334;2023-05-19T15:03:00;25.10;54.10
27633;DHT22;15046;50.930;13.334;2023-05-19T15:05:26;25.20;53.60
27633;DHT22;15046;50.930;13.334;2023-05-19T15:07:51;25.10;53.50
27633;DHT22;15046;50.930;13.334;2023-05-19T15:10:18;25.00;53.90
27633;DHT22;15046;50.930;13.334;2023-05-19T15:12:46;25.10;54.40
27633;DHT22;15046;50.930;13.334;2023-05-19T15:15:13;25.50;54.30
27633;DHT22;15046;50.930;13.334;2023-05-19T15:17:40;25.90;53.80
27633;DHT22;15046;50.930;13.334;2023-05-19T15:20:07;26.20;53.50
27633;DHT22;15046;50.930;13.334;2023-05-19T15:22:32;26.30;53.00
27633;DHT22;15046;50.930;13.334;2023-05-19T15:24:58;26.00;52.70
27633;DHT22;15046;50.930;13.334;2023-05-19T15:27:25;25.70;53.20
27633;DHT22;15046;50.930;13.334;2023-05-19T15:29:51;25.40;53.20
27633;DHT22;15046;50.930;13.334;2023-05-19T15:32:17;25.00;53.80
27633;DHT22;15046;50.930;13.334;2023-05-19T15:34:43;24.70;54.40
27633;DHT22;15046;50.930;13.334;2023-05-19T15:37:09;24.40;54.70
27633;DHT22;15046;50.930;13.334;2023-05-19T15:39:35;24.00;55.20
27633;DHT22;15046;50.930;13.334;2023-05-19T15:42:00;23.90;55.60
27633;DHT22;15046;50.930;13.334;2023-05-19T15:44:26;23.70;56.00
27633;DHT22;15046;50.930;13.334;2023-05-19T15:46:52;23.50;56.10
27633;DHT22;15046;50.930;13.334;2023-05-19T15:49:18;23.30;56.50
27633;DHT22;15046;50.930;13.334;2023-05-19T15:51:44;23.10;56.80
27633;DHT22;15046;50.930;13.334;2023-05-19T15:54:10;23.00;57.20
27633;DHT22;15046;50.930;13.334;2023-05-19T15:56:36;23.00;57.50
27633;DHT22;15046;50.930;13.334;2023-05-19T15:59:01;23.00;57.80